createdAt,value
2024-02-21T00:01:01.545Z,19.27
2024-02-21T00:03:31.592Z,22.05
2024-02-21T00:06:00.039Z,21.73
2024-02-21T00:08:28.522Z,21.05
2024-02-21T00:10:57.062Z,24.35
2024-02-21T00:13:25.629Z,21.67
2024-02-21T00:15:54.035Z,27.15
2024-02-21T00:18:23.768Z,27.98
2024-02-21T00:20:54.898Z,18.40
2024-02-21T00:23:23.260Z,19.55
2024-02-21T00:25:51.793Z,19.25
2024-02-21T00:28:20.297Z,18.58
2024-02-21T00:30:49.793Z,18.05
2024-02-21T00:33:18.231Z,17.15
2024-02-21T00:35:46.688Z,21.73
2024-02-21T00:38:16.503Z,18.75
2024-02-21T00:40:44.969Z,23.98
2024-02-21T00:43:13.466Z,27.50
2024-02-21T00:45:41.922Z,20.38
2024-02-21T00:48:10.435Z,18.55
2024-02-21T00:50:39.603Z,14.98
2024-02-21T00:53:08.054Z,21.45
2024-02-21T00:55:38.127Z,19.17
2024-02-21T00:58:06.541Z,17.60
2024-02-21T01:00:35.037Z,18.25
2024-02-21T01:03:03.463Z,24.30
2024-02-21T01:05:31.887Z,22.58
2024-02-21T01:08:00.338Z,16.35
2024-02-21T01:10:28.899Z,21.95
2024-02-21T01:12:58.842Z,15.68
2024-02-21T01:15:27.397Z,13.88
2024-02-21T01:17:56.729Z,15.15
2024-02-21T01:20:25.279Z,18.08
2024-02-21T01:22:53.874Z,19.20
2024-02-21T01:25:22.383Z,21.80
2024-02-21T01:27:50.820Z,19.55
2024-02-21T01:30:21.201Z,13.55
2024-02-21T01:32:49.593Z,14.00
2024-02-21T01:35:18.168Z,16.20
2024-02-21T01:37:46.824Z,13.70
2024-02-21T01:40:15.423Z,14.95
2024-02-21T01:42:43.868Z,10.35
2024-02-21T01:45:12.682Z,13.95
2024-02-21T01:47:42.849Z,14.88
2024-02-21T01:50:11.830Z,10.27
2024-02-21T01:52:40.738Z,11.68
2024-02-21T01:55:10.427Z,15.15
2024-02-21T01:57:39.153Z,13.85
2024-02-21T02:00:08.171Z,12.13
2024-02-21T02:02:36.582Z,18.73
2024-02-21T02:05:07.598Z,14.15
2024-02-21T02:07:36.185Z,16.83
2024-02-21T02:10:04.687Z,13.40
2024-02-21T02:12:33.074Z,19.40
2024-02-21T02:15:01.875Z,21.60
2024-02-21T02:17:30.334Z,15.13
2024-02-21T02:19:59.052Z,24.10
2024-02-21T02:22:31.640Z,23.08
2024-02-21T02:25:01.606Z,26.38
2024-02-21T02:27:30.030Z,17.70
2024-02-21T02:29:58.469Z,23.90
2024-02-21T02:32:26.957Z,17.38
2024-02-21T02:34:56.688Z,16.90
2024-02-21T02:37:25.133Z,23.70
2024-02-21T02:39:53.860Z,24.95
2024-02-21T02:42:23.673Z,18.63
2024-02-21T02:44:52.105Z,23.15
2024-02-21T02:47:20.724Z,27.60
2024-02-21T02:49:51.999Z,26.25
2024-02-21T02:52:21.086Z,17.45
2024-02-21T02:54:53.272Z,19.77
2024-02-21T02:57:23.055Z,23.35
2024-02-21T02:59:51.630Z,23.20
2024-02-21T03:02:20.338Z,16.30
2024-02-21T03:04:48.797Z,24.58
2024-02-21T03:07:17.468Z,19.10
2024-02-21T03:09:45.938Z,17.67
2024-02-21T03:12:20.163Z,16.65
2024-02-21T03:14:49.978Z,20.70
2024-02-21T03:17:18.389Z,17.95
2024-02-21T03:19:46.875Z,21.77
2024-02-21T03:22:15.338Z,20.55
2024-02-21T03:24:43.757Z,25.42
2024-02-21T03:27:12.182Z,24.65
2024-02-21T03:29:40.614Z,24.17
2024-02-21T03:32:10.763Z,20.67
2024-02-21T03:34:39.204Z,14.95
2024-02-21T03:37:07.672Z,16.70
2024-02-21T03:39:36.293Z,17.20
2024-02-21T03:42:05.944Z,21.40
2024-02-21T03:44:34.383Z,18.85
2024-02-21T03:47:03.151Z,16.08
2024-02-21T03:49:33.030Z,18.85
2024-02-21T03:52:01.562Z,18.77
2024-02-21T03:54:30.084Z,17.17
2024-02-21T03:56:58.755Z,18.40
2024-02-21T03:59:27.191Z,17.83
2024-02-21T04:01:55.788Z,12.45
2024-02-21T04:04:24.347Z,21.52
2024-02-21T04:06:54.173Z,14.85
2024-02-21T04:09:22.584Z,18.48
2024-02-21T04:11:51.152Z,15.32
2024-02-21T04:14:19.721Z,14.07
2024-02-21T04:16:48.138Z,15.32
2024-02-21T04:19:16.722Z,14.27
2024-02-21T04:21:45.838Z,21.95
2024-02-21T04:24:15.704Z,19.08
2024-02-21T04:26:44.806Z,15.02
2024-02-21T04:29:14.182Z,15.60
2024-02-21T04:31:43.143Z,23.83
2024-02-21T04:34:11.636Z,23.13
2024-02-21T04:36:40.051Z,22.30
2024-02-21T04:39:08.459Z,15.88
2024-02-21T04:41:38.223Z,22.33
2024-02-21T04:44:06.862Z,21.33
2024-02-21T04:46:35.330Z,23.48
2024-02-21T04:49:03.790Z,24.85
2024-02-21T04:51:33.278Z,17.52
2024-02-21T04:54:02.639Z,16.70
2024-02-21T04:56:31.071Z,19.52
2024-02-21T04:59:00.913Z,22.27
2024-02-21T05:01:31.055Z,17.60
2024-02-21T05:04:01.183Z,21.27
2024-02-21T05:06:29.642Z,18.08
2024-02-21T05:08:58.987Z,19.00
2024-02-21T05:11:27.440Z,20.48
2024-02-21T05:13:57.116Z,15.18
2024-02-21T05:16:27.040Z,18.90
2024-02-21T05:18:55.530Z,21.48
2024-02-21T05:21:24.802Z,14.85
2024-02-21T05:23:53.237Z,23.70
2024-02-21T05:26:24.889Z,20.90
2024-02-21T05:28:55.360Z,19.10
2024-02-21T05:31:23.911Z,20.80
2024-02-21T05:33:53.825Z,18.65
2024-02-21T05:36:22.273Z,16.10
2024-02-21T05:38:50.688Z,19.52
2024-02-21T05:41:19.215Z,17.55
2024-02-21T05:43:47.650Z,17.98
2024-02-21T05:46:16.155Z,18.20
2024-02-21T05:48:44.697Z,16.77
2024-02-21T05:51:14.509Z,18.15
2024-02-21T05:53:43.413Z,17.77
2024-02-21T05:56:13.305Z,20.83
2024-02-21T05:58:41.815Z,17.65
2024-02-21T06:01:10.316Z,13.48
2024-02-21T06:03:38.766Z,18.38
2024-02-21T06:06:07.570Z,19.23
2024-02-21T06:08:37.406Z,16.55
2024-02-21T06:11:06.025Z,13.77
2024-02-21T06:13:34.510Z,16.05
2024-02-21T06:16:03.116Z,18.85
2024-02-21T06:18:31.670Z,18.17
2024-02-21T06:21:00.162Z,14.98
2024-02-21T06:23:28.590Z,12.88
2024-02-21T06:25:58.537Z,16.92
2024-02-21T06:28:27.160Z,13.80
2024-02-21T06:30:55.582Z,17.70
2024-02-21T06:33:26.015Z,12.65
2024-02-21T06:35:55.146Z,15.05
2024-02-21T06:38:23.655Z,17.48
2024-02-21T06:40:53.542Z,11.23
2024-02-21T06:43:23.831Z,11.48
2024-02-21T06:45:52.794Z,9.48
2024-02-21T06:48:21.601Z,11.07
2024-02-21T06:50:50.071Z,10.45
2024-02-21T06:53:18.483Z,13.25
2024-02-21T06:55:46.972Z,11.93
2024-02-21T06:58:16.829Z,11.20
2024-02-21T07:00:46.742Z,13.75
2024-02-21T07:03:15.219Z,14.50
2024-02-21T07:05:43.903Z,9.82
2024-02-21T07:08:12.590Z,10.60
2024-02-21T07:10:41.105Z,12.45
2024-02-21T07:13:09.679Z,12.45
2024-02-21T07:15:38.932Z,8.27
2024-02-21T07:18:08.836Z,9.15
2024-02-21T07:20:38.516Z,12.70
2024-02-21T07:23:07.016Z,11.02
2024-02-21T07:25:35.630Z,10.55
2024-02-21T07:28:04.103Z,10.15
2024-02-21T07:30:32.591Z,8.52
2024-02-21T07:33:01.132Z,11.23
2024-02-21T07:35:31.008Z,11.48
2024-02-21T07:37:59.472Z,8.93
2024-02-21T07:40:28.059Z,10.90
2024-02-21T07:42:56.537Z,9.60
2024-02-21T07:45:25.721Z,12.88
2024-02-21T07:47:54.189Z,8.60
2024-02-21T07:50:22.799Z,11.43
2024-02-21T07:52:52.638Z,9.85
2024-02-21T07:55:21.252Z,15.32
2024-02-21T07:57:50.721Z,10.27
2024-02-21T08:00:21.301Z,10.45
2024-02-21T08:02:50.730Z,12.07
2024-02-21T08:05:19.286Z,14.27
2024-02-21T08:07:47.830Z,15.40
2024-02-21T08:10:17.677Z,21.80
2024-02-21T08:12:46.133Z,11.80
2024-02-21T08:15:14.522Z,14.30
2024-02-21T08:17:42.990Z,17.02
2024-02-21T08:20:12.239Z,16.02
2024-02-21T08:22:40.875Z,16.38
2024-02-21T08:25:09.431Z,13.05
2024-02-21T08:27:40.424Z,18.45
2024-02-21T08:30:09.510Z,15.00
2024-02-21T08:32:38.060Z,14.82
2024-02-21T08:35:07.346Z,16.60
2024-02-21T08:37:35.893Z,15.88
2024-02-21T08:40:10.024Z,14.13
2024-02-21T08:42:41.790Z,10.63
2024-02-21T08:45:10.961Z,13.65
2024-02-21T08:47:39.490Z,13.93
2024-02-21T08:50:15.267Z,15.63
2024-02-21T08:52:51.807Z,11.52
2024-02-21T08:55:20.314Z,13.30
2024-02-21T08:57:50.142Z,15.20
2024-02-21T09:00:19.195Z,14.18
2024-02-21T09:02:47.859Z,11.35
2024-02-21T09:05:16.716Z,13.35
2024-02-21T09:07:45.455Z,11.93
2024-02-21T09:10:13.878Z,11.35
2024-02-21T09:12:42.469Z,19.52
2024-02-21T09:15:13.074Z,13.95
2024-02-21T09:17:41.594Z,9.90
2024-02-21T09:20:13.210Z,12.15
2024-02-21T09:22:42.517Z,17.23
2024-02-21T09:25:12.823Z,14.65
2024-02-21T09:27:42.438Z,17.77
2024-02-21T09:30:12.780Z,10.35
2024-02-21T09:32:41.444Z,11.10
2024-02-21T09:35:11.442Z,14.07
2024-02-21T09:37:40.060Z,11.00
2024-02-21T09:40:09.086Z,14.95
2024-02-21T09:42:40.070Z,11.45
2024-02-21T09:45:10.832Z,16.60
2024-02-21T09:47:46.849Z,9.77
2024-02-21T09:50:16.497Z,11.73
2024-02-21T09:52:46.309Z,10.63
2024-02-21T09:55:15.515Z,13.00
2024-02-21T09:57:44.497Z,15.82
2024-02-21T10:00:13.911Z,14.73
2024-02-21T10:02:43.694Z,10.65
2024-02-21T10:05:12.229Z,10.55
2024-02-21T10:07:41.161Z,8.68
2024-02-21T10:10:10.298Z,12.32
2024-02-21T10:12:38.694Z,11.48
2024-02-21T10:15:07.986Z,11.55
2024-02-21T10:17:37.541Z,12.82
2024-02-21T10:20:15.527Z,10.07
2024-02-21T10:22:44.036Z,9.55
2024-02-21T10:25:12.812Z,10.90
2024-02-21T10:27:42.393Z,10.05
2024-02-21T10:30:15.801Z,9.75
2024-02-21T10:32:51.947Z,8.77
2024-02-21T10:35:30.571Z,10.90
2024-02-21T10:37:59.548Z,14.55
2024-02-21T10:40:28.904Z,8.80
2024-02-21T10:43:01.112Z,13.80
2024-02-21T10:45:32.820Z,11.73
2024-02-21T10:48:09.077Z,10.55
2024-02-21T10:50:42.091Z,10.63
2024-02-21T10:53:13.698Z,10.00
2024-02-21T10:55:44.777Z,13.02
2024-02-21T10:58:13.871Z,10.80
2024-02-21T11:00:43.924Z,11.07
2024-02-21T11:03:14.266Z,13.90
2024-02-21T11:05:46.595Z,10.23
2024-02-21T11:08:15.521Z,13.13
2024-02-21T11:10:48.820Z,9.05
2024-02-21T11:13:17.491Z,6.43
2024-02-21T11:15:48.741Z,11.82
2024-02-21T11:18:25.981Z,8.05
2024-02-21T11:20:55.883Z,8.43
2024-02-21T11:23:28.118Z,8.90
2024-02-21T11:26:07.072Z,12.90
2024-02-21T11:28:36.422Z,7.88
2024-02-21T11:31:11.539Z,9.18
2024-02-21T11:33:42.936Z,12.02
2024-02-21T11:36:12.897Z,12.82
2024-02-21T11:38:41.359Z,11.30
2024-02-21T11:41:13.580Z,9.15
2024-02-21T11:43:42.863Z,10.02
2024-02-21T11:46:11.273Z,8.80
2024-02-21T11:48:39.873Z,11.55
2024-02-21T11:51:12.560Z,9.02
2024-02-21T11:53:50.766Z,6.35
2024-02-21T11:56:27.114Z,7.38
2024-02-21T11:58:55.636Z,13.70
2024-02-21T12:01:24.325Z,7.13
2024-02-21T12:03:52.833Z,10.98
2024-02-21T12:06:23.402Z,9.52
2024-02-21T12:08:55.403Z,5.85
2024-02-21T12:11:24.333Z,5.78
2024-02-21T12:14:04.907Z,4.50
2024-02-21T12:16:33.692Z,8.02
2024-02-21T12:19:03.801Z,7.05
2024-02-21T12:21:34.055Z,5.15
2024-02-21T12:24:13.977Z,6.45
2024-02-21T12:26:42.595Z,5.55
2024-02-21T12:29:11.342Z,7.95
2024-02-21T12:31:40.107Z,8.65
2024-02-21T12:34:11.051Z,7.95
2024-02-21T12:36:43.992Z,5.68
2024-02-21T12:39:13.990Z,9.15
2024-02-21T12:41:44.259Z,4.65
2024-02-21T12:44:13.739Z,7.38
2024-02-21T12:46:42.679Z,6.90
2024-02-21T12:49:11.316Z,5.43
2024-02-21T12:51:40.731Z,5.85
2024-02-21T12:54:12.239Z,7.72
2024-02-21T12:56:42.485Z,2.80
2024-02-21T12:59:11.247Z,8.85
2024-02-21T13:01:40.070Z,6.53
2024-02-21T13:04:08.801Z,7.03
2024-02-21T13:06:38.185Z,7.25
2024-02-21T13:09:09.162Z,12.77
2024-02-21T13:11:39.087Z,7.65
2024-02-21T13:14:08.973Z,9.38
2024-02-21T13:16:40.764Z,8.32
2024-02-21T13:19:09.917Z,8.82
2024-02-21T13:21:38.572Z,9.88
2024-02-21T13:24:07.314Z,9.07
2024-02-21T13:26:35.733Z,10.40
2024-02-21T13:29:04.373Z,11.30
2024-02-21T13:31:34.359Z,7.10
2024-02-21T13:34:02.993Z,7.80
2024-02-21T13:36:31.566Z,5.35
2024-02-21T13:38:59.999Z,10.40
2024-02-21T13:41:28.871Z,6.13
2024-02-21T13:43:57.346Z,7.07
2024-02-21T13:46:25.745Z,11.70
2024-02-21T13:48:55.623Z,5.63
2024-02-21T13:51:24.041Z,11.35
2024-02-21T13:53:52.476Z,8.25
2024-02-21T13:56:20.968Z,10.75
2024-02-21T13:58:49.406Z,7.50
2024-02-21T14:01:17.881Z,7.32
2024-02-21T14:03:46.316Z,10.30
2024-02-21T14:06:16.245Z,8.70
2024-02-21T14:08:44.786Z,11.15
2024-02-21T14:11:13.318Z,8.43
2024-02-21T14:13:41.787Z,7.38
2024-02-21T14:16:14.152Z,6.65
2024-02-21T14:18:43.434Z,4.80
2024-02-21T14:21:12.749Z,10.48
2024-02-21T14:23:42.582Z,12.57
2024-02-21T14:26:11.071Z,6.85
2024-02-21T14:28:39.679Z,6.80
2024-02-21T14:31:10.163Z,8.70
2024-02-21T14:33:38.737Z,10.38
2024-02-21T14:36:08.718Z,9.40
2024-02-21T14:38:37.396Z,7.82
2024-02-21T14:41:07.614Z,9.43
2024-02-21T14:43:36.516Z,9.10
2024-02-21T14:46:05.599Z,11.68
2024-02-21T14:48:34.137Z,10.20
2024-02-21T14:51:02.657Z,9.02
2024-02-21T14:53:31.969Z,9.77
2024-02-21T14:56:00.582Z,6.60
2024-02-21T14:58:32.587Z,6.70
2024-02-21T15:01:01.163Z,10.10
2024-02-21T15:03:31.253Z,6.93
2024-02-21T15:05:59.802Z,9.98
2024-02-21T15:08:29.366Z,9.35
2024-02-21T15:10:57.955Z,8.20
2024-02-21T15:13:26.456Z,8.70
2024-02-21T15:15:56.263Z,13.40
2024-02-21T15:18:25.150Z,12.63
2024-02-21T15:20:54.314Z,7.00
2024-02-21T15:23:24.628Z,6.43
2024-02-21T15:25:53.060Z,8.10
2024-02-21T15:28:21.610Z,12.25
2024-02-21T15:30:50.042Z,7.68
2024-02-21T15:33:19.932Z,11.13
2024-02-21T15:35:49.153Z,10.52
2024-02-21T15:38:17.657Z,9.68
2024-02-21T15:40:46.139Z,10.50
2024-02-21T15:43:14.601Z,7.32
2024-02-21T15:45:42.988Z,4.78
2024-02-21T15:48:11.521Z,11.80
2024-02-21T15:50:41.364Z,7.40
2024-02-21T15:53:12.062Z,8.95
2024-02-21T15:55:40.598Z,10.43
2024-02-21T15:58:09.042Z,8.50
2024-02-21T16:00:37.464Z,14.15
2024-02-21T16:03:06.124Z,7.95
2024-02-21T16:05:34.690Z,9.98
2024-02-21T16:08:05.059Z,7.93
2024-02-21T16:10:33.800Z,10.73
2024-02-21T16:13:02.386Z,6.63
2024-02-21T16:15:32.101Z,8.15
2024-02-21T16:18:00.612Z,7.88
2024-02-21T16:20:29.443Z,10.40
2024-02-21T16:23:00.698Z,10.25
2024-02-21T16:25:30.621Z,6.40
2024-02-21T16:27:59.331Z,7.80
2024-02-21T16:30:27.761Z,6.10
2024-02-21T16:32:56.211Z,6.63
2024-02-21T16:35:24.754Z,13.02
2024-02-21T16:37:53.345Z,7.60
2024-02-21T16:40:21.877Z,6.68
2024-02-21T16:42:51.747Z,12.98
2024-02-21T16:45:21.889Z,10.25
2024-02-21T16:47:50.372Z,9.80
2024-02-21T16:50:19.328Z,9.45
2024-02-21T16:52:48.418Z,8.30
2024-02-21T16:55:17.538Z,7.25
2024-02-21T16:57:46.042Z,11.15
2024-02-21T17:00:16.273Z,9.20
2024-02-21T17:02:52.377Z,7.03
2024-02-21T17:05:27.823Z,7.25
2024-02-21T17:07:57.094Z,5.63
2024-02-21T17:10:25.677Z,12.75
2024-02-21T17:12:54.194Z,11.88
2024-02-21T17:15:24.026Z,8.95
2024-02-21T17:17:52.529Z,10.63
2024-02-21T17:20:21.003Z,6.28
2024-02-21T17:22:49.502Z,7.85
2024-02-21T17:25:18.061Z,11.48
2024-02-21T17:27:46.704Z,7.65
2024-02-21T17:30:15.406Z,5.30
2024-02-21T17:32:45.305Z,8.95
2024-02-21T17:35:14.201Z,6.95
2024-02-21T17:37:42.727Z,6.53
2024-02-21T17:40:11.460Z,7.97
2024-02-21T17:42:39.996Z,3.90
2024-02-21T17:45:09.196Z,7.45
2024-02-21T17:47:37.830Z,10.02
2024-02-21T17:50:08.710Z,5.50
2024-02-21T17:52:37.371Z,7.50
2024-02-21T17:55:06.762Z,6.80
2024-02-21T17:57:35.321Z,6.65
2024-02-21T18:00:04.013Z,8.30
2024-02-21T18:02:32.466Z,9.52
2024-02-21T18:05:01.074Z,10.02
2024-02-21T18:07:31.096Z,8.93
2024-02-21T18:09:59.648Z,5.30
2024-02-21T18:12:28.095Z,6.15
2024-02-21T18:14:59.096Z,6.90
2024-02-21T18:17:29.111Z,6.03
2024-02-21T18:19:57.580Z,9.43
2024-02-21T18:22:26.058Z,5.93
2024-02-21T18:24:55.908Z,7.13
2024-02-21T18:27:25.085Z,6.18
2024-02-21T18:29:53.819Z,6.35
2024-02-21T18:32:22.392Z,4.53
2024-02-21T18:34:51.016Z,13.63
2024-02-21T18:37:19.590Z,7.38
2024-02-21T18:39:48.291Z,3.95
2024-02-21T18:42:18.099Z,4.07
2024-02-21T18:44:47.196Z,3.58
2024-02-21T18:47:15.746Z,4.28
2024-02-21T18:49:45.200Z,3.85
2024-02-21T18:52:13.784Z,4.00
2024-02-21T18:54:43.575Z,2.30
2024-02-21T18:57:12.445Z,4.28
2024-02-21T18:59:42.243Z,4.65
2024-02-21T19:02:10.824Z,3.83
2024-02-21T19:04:39.815Z,5.38
2024-02-21T19:07:08.536Z,3.70
2024-02-21T19:09:37.313Z,3.95
2024-02-21T19:12:06.079Z,3.15
2024-02-21T19:14:34.619Z,4.72
2024-02-21T19:17:04.455Z,6.70
2024-02-21T19:19:35.182Z,3.40
2024-02-21T19:22:05.869Z,3.75
2024-02-21T19:24:34.321Z,4.03
2024-02-21T19:27:03.460Z,4.22
2024-02-21T19:29:31.907Z,3.70
2024-02-21T19:32:00.422Z,5.32
2024-02-21T19:34:30.536Z,4.88
2024-02-21T19:36:59.169Z,3.85
2024-02-21T19:39:27.834Z,3.35
2024-02-21T19:41:56.352Z,4.28
2024-02-21T19:44:24.881Z,3.47
2024-02-21T19:46:53.930Z,2.05
2024-02-21T19:49:22.570Z,3.42
2024-02-21T19:51:52.443Z,2.47
2024-02-21T19:54:24.982Z,3.35
2024-02-21T19:56:54.098Z,2.40
2024-02-21T19:59:22.579Z,4.18
2024-02-21T20:01:52.027Z,3.00
2024-02-21T20:04:20.648Z,4.00
2024-02-21T20:06:49.163Z,2.72
2024-02-21T20:09:19.040Z,2.38
2024-02-21T20:11:47.745Z,3.38
2024-02-21T20:14:18.095Z,2.85
2024-02-21T20:16:50.384Z,2.58
2024-02-21T20:19:19.051Z,2.58
2024-02-21T20:21:48.208Z,1.42
2024-02-21T20:24:27.997Z,3.92
2024-02-21T20:27:05.698Z,3.28
2024-02-21T20:29:34.159Z,3.72
2024-02-21T20:32:03.100Z,2.47
2024-02-21T20:34:32.677Z,1.90
2024-02-21T20:37:01.496Z,2.03
2024-02-21T20:39:31.683Z,2.53
2024-02-21T20:42:00.447Z,2.38
2024-02-21T20:44:30.315Z,2.20
2024-02-21T20:46:58.946Z,2.65
2024-02-21T20:49:30.071Z,2.28
2024-02-21T20:51:59.891Z,2.25
2024-02-21T20:54:28.335Z,1.52
2024-02-21T20:56:59.212Z,0.90
2024-02-21T20:59:28.020Z,1.90
2024-02-21T21:02:02.889Z,2.30
2024-02-21T21:04:33.088Z,1.52
2024-02-21T21:07:02.433Z,1.65
2024-02-21T21:09:30.955Z,1.77
2024-02-21T21:11:59.433Z,1.83
2024-02-21T21:14:29.360Z,1.30
2024-02-21T21:16:59.288Z,1.63
2024-02-21T21:19:29.116Z,1.42
2024-02-21T21:21:59.995Z,1.77
2024-02-21T21:24:30.234Z,2.20
2024-02-21T21:26:58.807Z,1.58
2024-02-21T21:29:27.320Z,1.58
2024-02-21T21:31:55.807Z,1.90
2024-02-21T21:34:25.735Z,1.30
2024-02-21T21:36:54.269Z,1.60
2024-02-21T21:39:23.026Z,1.48
2024-02-21T21:41:51.502Z,1.90
2024-02-21T21:44:19.995Z,4.30
2024-02-21T21:46:48.980Z,2.28
2024-02-21T21:49:17.838Z,2.00
2024-02-21T21:51:47.757Z,1.67
2024-02-21T21:54:16.214Z,2.40
2024-02-21T21:56:44.671Z,2.75
2024-02-21T21:59:13.358Z,1.90
2024-02-21T22:01:41.997Z,2.40
2024-02-21T22:04:10.537Z,2.45
2024-02-21T22:06:40.443Z,1.83
2024-02-21T22:09:10.489Z,2.13
2024-02-21T22:11:39.953Z,1.65
2024-02-21T22:14:10.066Z,1.75
2024-02-21T22:16:38.728Z,1.98
2024-02-21T22:19:07.270Z,1.48
2024-02-21T22:21:35.823Z,2.38
2024-02-21T22:24:04.290Z,2.35
2024-02-21T22:26:34.185Z,2.17
2024-02-21T22:29:02.709Z,2.05
2024-02-21T22:31:31.172Z,1.95
2024-02-21T22:33:59.707Z,2.70
2024-02-21T22:36:28.334Z,2.10
2024-02-21T22:38:56.793Z,2.75
2024-02-21T22:41:25.486Z,3.20
2024-02-21T22:43:55.388Z,2.65
2024-02-21T22:46:24.154Z,3.67
2024-02-21T22:48:53.402Z,2.72
2024-02-21T22:51:21.897Z,2.35
2024-02-21T22:53:50.319Z,2.38
2024-02-21T22:56:18.809Z,2.95
2024-02-21T22:58:47.296Z,3.20
2024-02-21T23:01:18.472Z,7.28
2024-02-21T23:03:47.292Z,4.32
2024-02-21T23:06:16.109Z,3.53
2024-02-21T23:08:44.542Z,5.85
2024-02-21T23:11:13.371Z,3.78
2024-02-21T23:13:41.948Z,3.17
2024-02-21T23:16:10.856Z,4.03
2024-02-21T23:18:40.662Z,6.05
2024-02-21T23:21:12.892Z,5.43
2024-02-21T23:23:41.330Z,4.00
2024-02-21T23:26:11.759Z,8.48
2024-02-21T23:28:44.155Z,3.88
2024-02-21T23:31:12.802Z,4.45
2024-02-21T23:33:42.780Z,4.50
2024-02-21T23:36:11.733Z,6.97
2024-02-21T23:38:40.200Z,5.00
2024-02-21T23:41:08.696Z,6.18
2024-02-21T23:43:42.700Z,5.68
2024-02-21T23:46:11.331Z,5.53
2024-02-21T23:48:39.843Z,5.10
2024-02-21T23:51:10.673Z,5.30
2024-02-21T23:53:39.308Z,5.80
2024-02-21T23:56:09.760Z,6.15
2024-02-21T23:58:39.268Z,5.20
